Time;durP1;ratioP1;P1;durP2;ratioP2;P2;SDS_P1;SDS_P2;PMS_P1;PMS_P2;Temp;Humidity;BMP_temperature;BMP_pressure;BME280_temperature;BME280_humidity;BME280_pressure;Samples;Min_cycle;Max_cycle;Signal;HPM_P1;HPM_P2
2021/01/24 00:02:23;;;;;;;9.53;6.70;;;4.40;99.90;;;;;;5018931;28;20210;-75
2021/01/24 00:04:50;;;;;;;9.93;6.63;;;4.30;99.90;;;;;;5018141;28;20226;-77
2021/01/24 00:07:16;;;;;;;12.33;5.97;;;4.30;99.90;;;;;;5019416;28;20290;-75
2021/01/24 00:09:44;;;;;;;9.37;6.73;;;4.30;99.90;;;;;;5019881;28;20226;-75
2021/01/24 00:12:10;;;;;;;10.50;7.10;;;4.30;99.90;;;;;;5015337;28;20210;-76
2021/01/24 00:14:36;;;;;;;11.33;6.17;;;4.20;99.90;;;;;;5012487;28;20209;-77
2021/01/24 00:17:03;;;;;;;8.10;6.10;;;4.20;99.90;;;;;;5013248;28;20294;-75
2021/01/24 00:19:29;;;;;;;11.23;6.33;;;4.20;99.90;;;;;;5013439;28;20203;-75
2021/01/24 00:21:56;;;;;;;9.37;6.60;;;4.20;99.90;;;;;;5011318;28;20568;-77
2021/01/24 00:24:23;;;;;;;10.67;7.03;;;4.20;99.90;;;;;;5010297;28;21827;-75
2021/01/24 00:26:50;;;;;;;12.13;6.63;;;4.20;99.90;;;;;;5012220;28;20210;-75
2021/01/24 00:29:16;;;;;;;9.73;6.40;;;4.10;99.90;;;;;;5010872;28;20199;-75
2021/01/24 00:31:43;;;;;;;11.33;7.27;;;4.10;99.90;;;;;;5011637;28;20230;-75
2021/01/24 00:34:10;;;;;;;10.03;6.40;;;4.10;99.90;;;;;;5010036;28;20199;-75
2021/01/24 00:36:36;;;;;;;9.63;6.60;;;4.10;99.90;;;;;;4996832;28;20212;-75
2021/01/24 00:39:04;;;;;;;10.70;6.93;;;4.00;99.90;;;;;;5016552;28;20204;-75
2021/01/24 00:41:30;;;;;;;10.47;6.73;;;4.00;99.90;;;;;;5014356;28;20208;-75
2021/01/24 00:43:57;;;;;;;9.53;6.53;;;4.00;99.90;;;;;;5016691;28;20269;-75
2021/01/24 00:46:24;;;;;;;8.90;6.20;;;3.90;99.90;;;;;;5010830;28;20684;-76
2021/01/24 00:48:50;;;;;;;13.90;6.60;;;3.90;99.90;;;;;;5017567;28;20203;-75
2021/01/24 00:51:17;;;;;;;9.60;6.60;;;3.90;99.90;;;;;;5017143;28;20345;-75
2021/01/24 00:53:43;;;;;;;10.60;7.03;;;3.80;99.90;;;;;;5014971;28;20294;-75
2021/01/24 00:56:10;;;;;;;9.37;6.77;;;3.80;99.90;;;;;;5011842;28;20207;-75
2021/01/24 00:58:36;;;;;;;10.07;6.70;;;3.80;99.90;;;;;;5013825;28;20302;-75
2021/01/24 01:01:03;;;;;;;11.07;6.90;;;3.80;99.90;;;;;;5013490;28;20196;-74
2021/01/24 01:03:30;;;;;;;10.33;6.50;;;3.80;99.90;;;;;;5014832;28;20566;-75
2021/01/24 01:05:56;;;;;;;10.57;6.67;;;3.80;99.90;;;;;;5014849;28;20211;-75
2021/01/24 01:08:23;;;;;;;10.60;7.07;;;3.80;99.90;;;;;;5016153;28;20203;-75
2021/01/24 01:10:49;;;;;;;11.90;7.00;;;3.80;99.90;;;;;;5011345;28;20254;-73
2021/01/24 01:13:16;;;;;;;9.40;7.20;;;3.80;99.90;;;;;;5014768;28;20211;-74
2021/01/24 01:15:42;;;;;;;9.03;6.63;;;3.80;99.90;;;;;;5015704;28;20238;-74
2021/01/24 01:18:10;;;;;;;10.07;7.20;;;3.90;99.90;;;;;;5014241;28;20653;-75
2021/01/24 01:20:36;;;;;;;11.43;6.97;;;3.90;99.90;;;;;;5014909;28;20287;-73
2021/01/24 01:23:03;;;;;;;11.47;7.37;;;3.90;99.90;;;;;;5014909;28;20306;-73
2021/01/24 01:25:29;;;;;;;11.83;6.87;;;3.90;99.90;;;;;;5013646;28;20238;-74
2021/01/24 01:27:55;;;;;;;9.07;7.23;;;3.90;99.90;;;;;;5014753;28;20207;-73
2021/01/24 01:30:23;;;;;;;9.20;7.00;;;3.80;99.90;;;;;;5014620;28;20223;-73
2021/01/24 01:32:49;;;;;;;10.93;7.40;;;3.80;99.90;;;;;;5012071;28;20195;-74
2021/01/24 01:35:17;;;;;;;10.93;7.27;;;3.90;99.90;;;;;;5014016;28;20211;-74
2021/01/24 01:37:43;;;;;;;10.83;7.57;;;3.80;99.90;;;;;;5014935;28;20291;-75
2021/01/24 01:40:10;;;;;;;10.23;6.90;;;3.80;99.90;;;;;;5013545;28;20199;-75
2021/01/24 01:42:37;;;;;;;11.93;7.50;;;3.80;99.90;;;;;;5015312;28;20298;-76
2021/01/24 01:45:05;;;;;;;12.97;7.47;;;3.80;99.90;;;;;;5014281;28;20204;-75
2021/01/24 01:47:32;;;;;;;11.67;7.50;;;3.80;99.90;;;;;;5015165;28;20233;-75
2021/01/24 01:49:59;;;;;;;10.30;7.53;;;3.70;99.90;;;;;;5013180;28;20261;-76
2021/01/24 01:52:28;;;;;;;10.23;7.33;;;3.70;99.90;;;;;;5015324;28;20635;-76
2021/01/24 01:54:55;;;;;;;10.40;7.47;;;3.70;99.90;;;;;;5015874;28;20211;-76
2021/01/24 01:57:22;;;;;;;8.63;6.63;;;3.70;99.90;;;;;;5015873;28;20678;-76
2021/01/24 01:59:50;;;;;;;10.40;6.90;;;3.70;99.90;;;;;;5012846;28;20218;-75
2021/01/24 02:02:36;;;;;;;9.17;7.37;;;3.70;99.90;;;;;;5015077;28;20640;-76
2021/01/24 02:05:07;;;;;;;9.53;6.90;;;3.60;99.90;;;;;;5010414;28;20302;-75
2021/01/24 02:07:40;;;;;;;9.83;7.30;;;3.60;99.90;;;;;;5014911;28;20396;-75
2021/01/24 02:10:10;;;;;;;10.00;7.07;;;3.60;99.90;;;;;;5013844;28;20214;-76
2021/01/24 02:12:45;;;;;;;9.93;7.00;;;3.60;99.90;;;;;;5015123;28;20205;-74
2021/01/24 02:15:17;;;;;;;9.83;7.37;;;3.60;99.90;;;;;;5013301;28;20199;-74
2021/01/24 02:17:50;;;;;;;12.33;7.97;;;3.50;99.90;;;;;;5014964;28;20234;-75
2021/01/24 02:20:25;;;;;;;8.77;6.80;;;3.60;99.90;;;;;;5013939;28;20207;-75
2021/01/24 02:22:54;;;;;;;10.23;7.07;;;3.60;99.90;;;;;;5009806;28;20639;-76
2021/01/24 02:25:30;;;;;;;10.00;7.27;;;3.50;99.90;;;;;;5012303;28;20294;-75
2021/01/24 02:28:04;;;;;;;11.63;7.90;;;3.50;99.90;;;;;;5014638;28;20786;-75
2021/01/24 02:30:34;;;;;;;10.47;7.10;;;3.50;99.90;;;;;;5013064;28;20226;-75
2021/01/24 02:33:05;;;;;;;8.03;6.97;;;3.50;99.90;;;;;;5014016;28;20211;-76
2021/01/24 02:35:36;;;;;;;9.03;7.30;;;3.50;99.90;;;;;;5012397;28;20287;-75
2021/01/24 02:38:05;;;;;;;9.47;7.57;;;3.40;99.90;;;;;;5015053;28;20264;-76
2021/01/24 02:40:35;;;;;;;10.57;7.27;;;3.50;99.90;;;;;;5012989;28;20203;-75
2021/01/24 02:43:05;;;;;;;11.90;6.93;;;3.50;99.90;;;;;;5009373;28;20207;-75
2021/01/24 02:45:35;;;;;;;10.27;7.63;;;3.50;99.90;;;;;;5014489;28;20639;-75
2021/01/24 02:48:03;;;;;;;8.87;7.03;;;3.50;99.90;;;;;;5014689;28;20262;-76
2021/01/24 02:50:30;;;;;;;9.10;7.17;;;3.50;99.90;;;;;;5012918;28;20223;-75
2021/01/24 02:52:58;;;;;;;9.77;7.80;;;3.50;99.90;;;;;;5012355;28;20210;-73
2021/01/24 02:55:25;;;;;;;11.63;7.50;;;3.60;99.90;;;;;;5011496;28;20567;-75
2021/01/24 02:57:52;;;;;;;9.67;7.57;;;3.60;99.90;;;;;;5013385;28;20291;-74
2021/01/24 03:00:20;;;;;;;11.80;8.40;;;3.70;99.90;;;;;;5014741;28;20211;-75
2021/01/24 03:02:48;;;;;;;10.07;7.63;;;3.70;99.90;;;;;;5011226;28;20334;-74
2021/01/24 03:05:14;;;;;;;8.83;7.17;;;3.80;99.90;;;;;;5012605;28;20223;-73
2021/01/24 03:07:41;;;;;;;9.00;7.17;;;3.80;99.90;;;;;;5013019;28;20211;-74
2021/01/24 03:10:09;;;;;;;8.93;7.37;;;3.80;99.90;;;;;;5009410;28;20320;-75
2021/01/24 03:12:40;;;;;;;10.23;7.67;;;3.70;99.90;;;;;;5012966;28;20218;-74
2021/01/24 03:15:08;;;;;;;11.73;8.40;;;3.70;99.90;;;;;;5012731;28;20571;-75
2021/01/24 03:17:36;;;;;;;10.00;8.13;;;3.70;99.90;;;;;;5014482;28;20726;-74
2021/01/24 03:20:06;;;;;;;10.30;8.03;;;3.70;99.90;;;;;;5014397;28;20242;-74
2021/01/24 03:22:35;;;;;;;9.67;7.50;;;3.70;99.90;;;;;;5009939;28;20286;-75
2021/01/24 03:25:02;;;;;;;13.03;9.03;;;3.80;99.90;;;;;;5010543;28;20211;-76
2021/01/24 03:27:30;;;;;;;12.27;8.40;;;3.90;99.90;;;;;;5013082;28;20664;-75
2021/01/24 03:29:58;;;;;;;9.27;7.57;;;3.90;99.90;;;;;;5013606;28;20208;-76
2021/01/24 03:32:25;;;;;;;11.10;8.13;;;3.90;99.90;;;;;;5013558;28;20218;-75
2021/01/24 03:34:51;;;;;;;11.47;8.17;;;3.90;99.90;;;;;;5010737;28;20238;-74
2021/01/24 03:37:18;;;;;;;12.53;8.47;;;3.80;99.90;;;;;;5012292;28;20203;-75
2021/01/24 03:39:45;;;;;;;12.13;8.70;;;3.90;99.90;;;;;;5010782;28;20972;-76
2021/01/24 03:42:11;;;;;;;9.73;7.50;;;3.90;99.90;;;;;;5010387;28;20195;-75
2021/01/24 03:44:37;;;;;;;11.40;8.03;;;3.90;99.90;;;;;;5013353;28;20225;-76
2021/01/24 03:47:04;;;;;;;10.53;7.90;;;3.80;99.90;;;;;;5011320;28;20211;-74
2021/01/24 03:49:30;;;;;;;10.03;8.10;;;3.80;99.90;;;;;;5010631;28;20215;-75
2021/01/24 03:51:56;;;;;;;13.30;8.40;;;3.80;99.90;;;;;;5011285;28;20258;-74
2021/01/24 03:54:24;;;;;;;11.47;8.10;;;3.80;99.90;;;;;;5011231;28;20572;-75
2021/01/24 03:56:50;;;;;;;11.43;8.70;;;3.80;99.90;;;;;;5012701;28;20246;-75
2021/01/24 03:59:16;;;;;;;13.27;8.47;;;3.80;99.90;;;;;;5012792;28;20275;-76
2021/01/24 04:01:43;;;;;;;11.63;7.80;;;3.80;99.90;;;;;;5011719;28;20245;-75
2021/01/24 04:04:10;;;;;;;10.43;7.70;;;3.80;99.90;;;;;;5013291;28;20221;-75
2021/01/24 04:06:38;;;;;;;11.50;8.23;;;3.80;99.90;;;;;;5012265;28;20735;-75
2021/01/24 04:09:05;;;;;;;10.60;7.83;;;3.80;99.90;;;;;;5012421;28;20215;-75
2021/01/24 04:11:32;;;;;;;13.17;8.60;;;3.80;99.90;;;;;;5012952;28;20341;-75
2021/01/24 04:13:58;;;;;;;11.57;8.73;;;3.70;99.90;;;;;;5015437;28;20221;-76
2021/01/24 04:16:25;;;;;;;12.27;8.30;;;3.80;99.90;;;;;;5017060;28;20231;-74
2021/01/24 04:18:51;;;;;;;14.47;9.00;;;3.80;99.90;;;;;;5016950;28;20322;-75
2021/01/24 04:21:18;;;;;;;12.23;8.83;;;3.70;99.90;;;;;;5016145;28;20203;-74
2021/01/24 04:23:44;;;;;;;10.77;8.37;;;3.70;99.90;;;;;;5015245;28;20207;-74
2021/01/24 04:26:11;;;;;;;12.83;8.67;;;3.70;99.90;;;;;;5015428;28;20211;-75
2021/01/24 04:28:39;;;;;;;12.70;9.03;;;3.70;99.90;;;;;;5017390;28;20217;-75
2021/01/24 04:31:05;;;;;;;11.97;8.77;;;3.70;99.90;;;;;;5015984;28;20231;-75
2021/01/24 04:33:31;;;;;;;12.03;9.00;;;3.70;99.90;;;;;;5013983;28;20199;-74
2021/01/24 04:35:58;;;;;;;12.63;8.90;;;3.70;99.90;;;;;;5011708;28;20207;-75
2021/01/24 04:38:24;;;;;;;12.93;9.00;;;3.70;99.90;;;;;;5017141;28;20207;-75
2021/01/24 04:40:51;;;;;;;12.97;9.43;;;3.70;99.90;;;;;;5016336;28;20267;-75
2021/01/24 04:43:17;;;;;;;11.43;8.77;;;3.70;99.90;;;;;;5015378;28;20749;-74
2021/01/24 04:45:45;;;;;;;13.27;9.83;;;3.70;99.90;;;;;;5015846;28;20297;-74
2021/01/24 04:48:11;;;;;;;12.83;9.20;;;3.70;99.90;;;;;;5016313;28;20209;-75
2021/01/24 04:50:38;;;;;;;14.60;9.53;;;3.60;99.90;;;;;;5013232;28;20290;-76
2021/01/24 04:53:04;;;;;;;14.97;9.13;;;3.70;99.90;;;;;;5015594;28;20213;-75
2021/01/24 04:55:31;;;;;;;13.83;9.37;;;3.70;99.90;;;;;;5016908;28;20203;-75
2021/01/24 04:57:58;;;;;;;13.20;9.13;;;3.70;99.90;;;;;;5016053;28;20296;-75
2021/01/24 05:00:25;;;;;;;14.27;10.10;;;3.70;99.90;;;;;;5014710;28;20231;-76
2021/01/24 05:02:52;;;;;;;11.13;8.87;;;3.70;99.90;;;;;;5014205;28;20278;-75
2021/01/24 05:05:20;;;;;;;13.97;9.50;;;3.80;99.90;;;;;;5013866;28;20461;-77
2021/01/24 05:07:54;;;;;;;12.73;8.87;;;3.80;99.90;;;;;;5016821;28;20334;-76
2021/01/24 05:10:25;;;;;;;14.13;9.73;;;3.80;99.90;;;;;;5010739;28;20238;-75
2021/01/24 05:12:51;;;;;;;14.60;10.97;;;3.90;99.90;;;;;;5015243;28;20239;-75
2021/01/24 05:15:18;;;;;;;14.90;10.70;;;3.80;99.90;;;;;;5014693;28;20573;-75
2021/01/24 05:17:53;;;;;;;16.17;11.90;;;3.90;99.90;;;;;;5014126;28;20333;-74
2021/01/24 05:20:24;;;;;;;14.30;10.83;;;3.80;99.90;;;;;;5014089;28;20735;-75
2021/01/24 05:22:51;;;;;;;15.37;10.93;;;3.80;99.90;;;;;;5015468;28;20291;-74
2021/01/24 05:25:19;;;;;;;13.30;10.03;;;3.80;99.90;;;;;;5016392;28;20262;-75
2021/01/24 05:27:46;;;;;;;14.33;10.43;;;3.80;99.90;;;;;;5015898;28;20368;-74
2021/01/24 05:30:14;;;;;;;14.73;10.87;;;3.80;99.90;;;;;;5011871;28;20239;-74
2021/01/24 05:32:44;;;;;;;16.27;11.10;;;3.80;99.90;;;;;;5013444;28;20230;-74
2021/01/24 05:35:12;;;;;;;13.73;10.03;;;3.90;99.90;;;;;;5015570;28;20206;-74
2021/01/24 05:37:39;;;;;;;13.73;9.93;;;3.80;99.90;;;;;;5014027;28;20245;-75
2021/01/24 05:40:07;;;;;;;12.83;9.73;;;3.80;99.90;;;;;;5014504;28;20304;-74
2021/01/24 05:42:37;;;;;;;13.13;9.93;;;3.80;99.90;;;;;;5014050;28;20273;-75
2021/01/24 05:45:10;;;;;;;13.50;9.80;;;3.90;99.90;;;;;;5012649;28;20211;-75
2021/01/24 05:47:38;;;;;;;14.20;9.87;;;3.90;99.90;;;;;;5011661;28;20199;-74
2021/01/24 05:50:12;;;;;;;12.47;8.97;;;3.90;99.90;;;;;;5014501;28;20298;-74
2021/01/24 05:52:40;;;;;;;13.70;9.73;;;3.90;99.90;;;;;;5015253;28;20306;-74
2021/01/24 05:55:09;;;;;;;15.63;10.20;;;4.00;99.90;;;;;;5011943;28;20215;-75
2021/01/24 05:57:37;;;;;;;12.20;9.47;;;4.00;99.90;;;;;;5012213;28;20207;-75
2021/01/24 06:00:05;;;;;;;12.47;9.70;;;4.00;99.90;;;;;;5013993;28;20211;-75
2021/01/24 06:02:32;;;;;;;13.47;9.63;;;4.00;99.90;;;;;;5009976;28;20605;-75
2021/01/24 06:04:59;;;;;;;14.53;10.43;;;3.90;99.90;;;;;;5013056;28;20257;-76
2021/01/24 06:07:26;;;;;;;13.20;9.67;;;4.00;99.90;;;;;;5015531;28;20298;-75
2021/01/24 06:09:52;;;;;;;15.90;10.77;;;4.10;99.90;;;;;;5011654;28;20207;-74
2021/01/24 06:12:24;;;;;;;13.30;9.53;;;4.00;99.90;;;;;;5014310;28;20599;-74
2021/01/24 06:14:52;;;;;;;14.90;10.63;;;4.00;99.90;;;;;;5014945;28;20616;-74
2021/01/24 06:17:27;;;;;;;15.13;10.27;;;4.00;99.90;;;;;;5012789;28;20231;-74
2021/01/24 06:19:58;;;;;;;15.40;9.93;;;4.00;99.90;;;;;;5010830;28;20209;-74
2021/01/24 06:22:30;;;;;;;16.67;10.83;;;4.00;99.90;;;;;;5013447;28;20208;-75
2021/01/24 06:25:00;;;;;;;14.90;10.13;;;4.00;99.90;;;;;;5011614;28;20707;-74
2021/01/24 06:27:33;;;;;;;13.50;10.23;;;4.00;99.90;;;;;;5013017;28;20361;-75
2021/01/24 06:30:01;;;;;;;14.70;10.83;;;4.00;99.90;;;;;;5010454;28;20251;-73
2021/01/24 06:32:28;;;;;;;12.40;10.00;;;3.90;99.90;;;;;;5006523;28;20253;-75
2021/01/24 06:35:13;;;;;;;16.77;11.40;;;4.00;99.90;;;;;;5013720;28;20225;-74
2021/01/24 06:37:59;;;;;;;17.67;11.13;;;4.00;99.90;;;;;;5013850;28;20673;-74
2021/01/24 06:40:28;;;;;;;16.43;11.20;;;3.90;99.90;;;;;;5011695;28;20596;-73
2021/01/24 06:42:59;;;;;;;15.53;10.03;;;3.90;99.90;;;;;;5011235;28;20238;-73
2021/01/24 06:45:43;;;;;;;17.50;11.43;;;3.90;99.90;;;;;;5016125;28;20231;-75
2021/01/24 06:48:15;;;;;;;15.47;10.50;;;3.90;99.90;;;;;;5013040;28;20631;-74
2021/01/24 06:50:43;;;;;;;15.53;10.80;;;3.90;99.90;;;;;;5014354;28;20219;-75
2021/01/24 06:53:12;;;;;;;15.83;10.90;;;3.80;99.90;;;;;;5013124;28;20222;-75
2021/01/24 06:55:41;;;;;;;14.53;10.73;;;3.80;99.90;;;;;;5014796;28;20214;-75
2021/01/24 06:58:47;;;;;;;17.20;12.00;;;3.70;99.90;;;;;;5014268;28;20291;-74
2021/01/24 07:01:24;;;;;;;16.40;11.53;;;3.60;99.90;;;;;;4949043;29;20197;-73
2021/01/24 07:04:38;;;;;;;17.17;12.07;;;3.50;99.90;;;;;;5002958;28;20207;-74
2021/01/24 07:07:40;;;;;;;14.43;10.43;;;3.50;99.90;;;;;;4934455;29;20227;-74
2021/01/24 07:10:10;;;;;;;17.53;10.40;;;3.40;99.90;;;;;;4928474;29;20256;-75
2021/01/24 07:12:45;;;;;;;15.27;10.53;;;3.40;99.90;;;;;;4987439;28;20286;-74
2021/01/24 07:15:21;;;;;;;15.23;11.43;;;3.30;99.90;;;;;;5010102;28;20238;-75
2021/01/24 07:18:01;;;;;;;15.60;11.10;;;3.30;99.90;;;;;;5011398;28;20309;-73
2021/01/24 07:20:29;;;;;;;15.07;10.37;;;3.20;99.90;;;;;;5013585;28;20611;-75
2021/01/24 07:22:55;;;;;;;16.50;10.83;;;3.20;99.90;;;;;;5012761;28;20268;-75
2021/01/24 07:25:24;;;;;;;15.47;11.53;;;3.20;99.90;;;;;;5012490;28;20290;-75
2021/01/24 07:27:54;;;;;;;17.23;11.77;;;3.20;99.90;;;;;;5004172;28;20214;-74
2021/01/24 07:30:25;;;;;;;16.93;11.37;;;3.20;99.90;;;;;;5014598;28;20231;-75
2021/01/24 07:32:52;;;;;;;17.07;11.97;;;3.20;99.90;;;;;;5011544;28;20214;-77
2021/01/24 07:35:20;;;;;;;19.13;11.90;;;3.20;99.90;;;;;;5011187;28;20206;-76
2021/01/24 07:37:49;;;;;;;16.53;11.00;;;3.30;99.90;;;;;;5012661;28;20218;-74
2021/01/24 07:40:15;;;;;;;18.43;12.53;;;3.30;99.90;;;;;;5014493;28;20626;-76
2021/01/24 07:42:43;;;;;;;18.87;12.03;;;3.30;99.90;;;;;;5013130;28;20636;-75
2021/01/24 07:45:11;;;;;;;16.43;11.57;;;3.30;99.90;;;;;;5005236;28;20261;-75
2021/01/24 07:47:37;;;;;;;18.67;13.20;;;3.40;99.90;;;;;;5014869;28;20325;-75
2021/01/24 07:50:04;;;;;;;21.03;12.50;;;3.40;99.90;;;;;;5002796;28;20206;-77
2021/01/24 07:52:31;;;;;;;19.57;12.87;;;3.40;99.90;;;;;;5011114;28;20253;-74
2021/01/24 07:54:59;;;;;;;19.83;12.23;;;3.50;99.90;;;;;;5004102;28;20208;-76
2021/01/24 07:57:26;;;;;;;18.27;11.03;;;3.50;99.90;;;;;;5009773;28;20196;-75
2021/01/24 07:59:55;;;;;;;19.93;11.97;;;3.60;99.90;;;;;;5009154;28;20302;-76
2021/01/24 08:02:22;;;;;;;17.00;11.63;;;3.60;99.90;;;;;;5014026;28;20199;-74
2021/01/24 08:04:49;;;;;;;18.00;12.70;;;3.60;99.90;;;;;;5006316;28;20212;-76
2021/01/24 08:07:15;;;;;;;18.40;12.57;;;3.60;99.90;;;;;;5006378;28;20239;-76
2021/01/24 08:09:43;;;;;;;17.57;11.43;;;3.60;99.90;;;;;;5015010;28;20270;-77
2021/01/24 08:12:11;;;;;;;13.57;9.73;;;3.70;99.90;;;;;;5017265;28;20231;-76
2021/01/24 08:14:38;;;;;;;16.77;11.07;;;3.70;99.90;;;;;;5011027;28;20222;-75
2021/01/24 08:17:07;;;;;;;18.23;11.97;;;3.70;99.90;;;;;;5011078;28;20227;-73
2021/01/24 08:19:34;;;;;;;17.43;12.13;;;3.70;99.90;;;;;;5014117;28;20238;-74
2021/01/24 08:22:01;;;;;;;16.07;10.87;;;3.70;99.90;;;;;;5015265;28;20326;-76
2021/01/24 08:24:29;;;;;;;17.33;11.27;;;3.70;99.90;;;;;;5015867;28;20212;-76
2021/01/24 08:26:56;;;;;;;17.40;11.73;;;3.70;99.90;;;;;;5015501;28;20253;-76
2021/01/24 08:29:23;;;;;;;17.10;12.17;;;3.70;99.90;;;;;;5011881;28;20726;-75
2021/01/24 08:31:50;;;;;;;15.00;11.47;;;3.80;99.90;;;;;;5013110;28;20231;-76
2021/01/24 08:34:18;;;;;;;14.47;10.57;;;3.70;99.90;;;;;;5005768;28;20296;-76
2021/01/24 08:36:45;;;;;;;16.67;11.83;;;3.70;99.90;;;;;;5010474;28;20212;-72
2021/01/24 08:39:11;;;;;;;19.30;13.07;;;3.60;99.90;;;;;;5009964;28;20219;-72
2021/01/24 08:41:40;;;;;;;18.33;12.37;;;3.50;99.90;;;;;;5009977;28;20369;-70
2021/01/24 08:44:10;;;;;;;20.87;12.90;;;3.50;99.90;;;;;;5008316;28;20732;-71
2021/01/24 08:46:39;;;;;;;18.70;11.73;;;3.50;99.90;;;;;;5009497;28;20671;-70
2021/01/24 08:49:11;;;;;;;17.57;11.80;;;3.50;99.90;;;;;;5015175;28;20269;-72
2021/01/24 08:52:03;;;;;;;21.67;12.93;;;3.50;99.90;;;;;;5009681;28;20242;-73
2021/01/24 08:54:31;;;;;;;16.77;11.80;;;3.60;99.90;;;;;;5007806;28;20204;-72
2021/01/24 08:57:10;;;;;;;16.93;12.20;;;3.50;99.90;;;;;;5011789;28;20346;-70
2021/01/24 08:59:40;;;;;;;17.87;11.67;;;3.50;99.90;;;;;;5017217;28;20203;-75
2021/01/24 09:02:09;;;;;;;17.50;12.43;;;3.50;99.90;;;;;;5021971;28;20199;-75
2021/01/24 09:04:46;;;;;;;18.53;12.60;;;3.50;99.90;;;;;;5012938;28;20218;-74
2021/01/24 09:07:14;;;;;;;17.20;12.67;;;3.50;99.90;;;;;;5011197;28;20254;-74
2021/01/24 09:09:45;;;;;;;16.47;12.20;;;3.50;99.90;;;;;;5013163;28;20303;-75
2021/01/24 09:12:13;;;;;;;18.17;12.63;;;3.50;99.90;;;;;;5008304;28;20230;-73
2021/01/24 09:14:39;;;;;;;18.03;12.20;;;3.50;99.90;;;;;;4999579;28;20219;-71
2021/01/24 09:17:11;;;;;;;20.40;13.13;;;3.50;99.90;;;;;;5014759;28;20721;-71
2021/01/24 09:19:42;;;;;;;21.40;13.60;;;3.40;99.90;;;;;;5010286;28;20242;-71
2021/01/24 09:22:14;;;;;;;20.80;13.33;;;3.40;99.90;;;;;;5013927;28;20724;-70
2021/01/24 09:24:42;;;;;;;20.67;13.40;;;3.40;99.90;;;;;;5017578;28;20229;-74
2021/01/24 09:27:10;;;;;;;20.07;13.40;;;3.40;99.90;;;;;;5015167;28;20211;-72
2021/01/24 09:29:38;;;;;;;18.97;13.67;;;3.40;99.90;;;;;;5010277;28;20211;-71
2021/01/24 09:32:05;;;;;;;20.60;13.33;;;3.40;99.90;;;;;;4996891;28;20262;-72
2021/01/24 09:34:32;;;;;;;20.67;14.33;;;3.40;99.90;;;;;;5006292;28;20208;-73
2021/01/24 09:36:59;;;;;;;21.37;13.70;;;3.40;99.90;;;;;;4996636;28;20298;-73
2021/01/24 09:39:26;;;;;;;22.47;15.17;;;3.40;99.90;;;;;;4997960;28;20276;-72
2021/01/24 09:41:53;;;;;;;23.03;14.70;;;3.40;99.90;;;;;;4988959;28;20667;-70
2021/01/24 09:44:20;;;;;;;20.47;14.67;;;3.40;99.90;;;;;;5012151;28;20736;-73
2021/01/24 09:46:46;;;;;;;21.70;14.90;;;3.40;99.90;;;;;;5009252;28;20208;-72
2021/01/24 09:49:15;;;;;;;21.23;14.70;;;3.40;99.90;;;;;;5002278;28;20291;-73
2021/01/24 09:51:42;;;;;;;20.70;14.10;;;3.50;99.90;;;;;;5017175;28;20666;-72
2021/01/24 09:54:10;;;;;;;22.20;14.03;;;3.40;99.90;;;;;;5009039;28;20307;-74
2021/01/24 09:56:36;;;;;;;20.43;14.57;;;3.40;99.90;;;;;;5001376;28;20680;-74
2021/01/24 09:59:07;;;;;;;24.07;15.20;;;3.40;99.90;;;;;;5009339;28;20207;-72
2021/01/24 10:01:33;;;;;;;23.70;14.23;;;3.30;99.90;;;;;;5006576;28;20444;-73
2021/01/24 10:03:59;;;;;;;23.47;15.47;;;3.30;99.90;;;;;;5010618;28;20302;-72
2021/01/24 10:06:27;;;;;;;22.40;15.20;;;3.30;99.90;;;;;;5009766;28;20219;-72
2021/01/24 10:09:04;;;;;;;25.00;16.57;;;3.20;99.90;;;;;;4999885;28;20211;-72
2021/01/24 10:11:32;;;;;;;26.30;16.27;;;3.20;99.90;;;;;;5010405;28;20227;-73
2021/01/24 10:13:59;;;;;;;22.03;15.27;;;3.30;99.90;;;;;;4995350;28;20266;-71
2021/01/24 10:16:29;;;;;;;25.07;15.50;;;3.30;99.90;;;;;;5002722;28;20315;-71
2021/01/24 10:18:55;;;;;;;24.47;16.70;;;3.40;99.90;;;;;;5010975;28;20242;-72
2021/01/24 10:21:22;;;;;;;25.60;16.70;;;3.40;99.90;;;;;;5009350;28;20238;-72
2021/01/24 10:23:48;;;;;;;27.87;16.43;;;3.40;99.90;;;;;;5012196;28;20294;-72
2021/01/24 10:26:14;;;;;;;24.30;16.30;;;3.40;99.90;;;;;;5009055;28;20295;-70
2021/01/24 10:28:41;;;;;;;25.77;16.03;;;3.40;99.90;;;;;;5004936;28;20571;-71
2021/01/24 10:31:07;;;;;;;24.33;16.33;;;3.40;99.90;;;;;;4994956;28;20688;-71
2021/01/24 10:33:35;;;;;;;26.20;16.70;;;3.40;99.90;;;;;;4995600;28;20200;-70
2021/01/24 10:36:01;;;;;;;23.70;16.53;;;3.40;99.90;;;;;;5007511;28;20326;-71
2021/01/24 10:38:28;;;;;;;25.23;15.40;;;3.40;99.90;;;;;;5013017;28;20302;-71
2021/01/24 10:40:55;;;;;;;24.33;15.70;;;3.40;99.90;;;;;;5013110;28;20215;-73
2021/01/24 10:43:22;;;;;;;27.53;16.63;;;3.40;99.90;;;;;;5012433;28;20207;-73
2021/01/24 10:45:48;;;;;;;25.83;16.53;;;3.40;99.90;;;;;;5012390;28;20218;-71
2021/01/24 10:48:15;;;;;;;25.53;17.33;;;3.30;99.90;;;;;;5012112;28;20293;-71
2021/01/24 10:50:42;;;;;;;27.20;17.37;;;3.40;99.90;;;;;;5013052;28;20218;-73
2021/01/24 10:53:09;;;;;;;28.27;17.00;;;3.50;99.90;;;;;;5012233;28;20215;-72
2021/01/24 10:55:36;;;;;;;24.73;16.93;;;3.50;99.90;;;;;;5012328;28;20207;-71
2021/01/24 10:58:03;;;;;;;28.60;16.83;;;3.50;99.90;;;;;;5012329;28;20571;-70
2021/01/24 11:00:29;;;;;;;24.53;16.90;;;3.60;99.90;;;;;;5008015;28;20218;-71
2021/01/24 11:02:56;;;;;;;27.00;16.80;;;3.70;99.90;;;;;;5012084;28;20211;-71
2021/01/24 11:05:22;;;;;;;25.63;16.60;;;3.70;99.90;;;;;;5012399;28;20257;-70
2021/01/24 11:07:49;;;;;;;25.57;17.33;;;3.80;99.90;;;;;;5011872;28;20570;-71
2021/01/24 11:10:17;;;;;;;27.93;16.87;;;3.80;99.90;;;;;;5008001;28;20253;-71
2021/01/24 11:12:43;;;;;;;24.53;16.37;;;3.80;99.90;;;;;;5012188;28;20548;-72
2021/01/24 11:15:11;;;;;;;25.83;16.53;;;3.80;99.90;;;;;;5009114;28;20302;-72
2021/01/24 11:17:37;;;;;;;28.67;17.33;;;3.80;99.90;;;;;;5008506;28;20241;-72
2021/01/24 11:20:06;;;;;;;27.20;17.30;;;3.90;99.90;;;;;;5008820;28;20683;-72
2021/01/24 11:22:33;;;;;;;25.93;16.37;;;3.90;99.90;;;;;;5010873;28;20668;-71
2021/01/24 11:25:00;;;;;;;26.20;16.23;;;3.90;99.90;;;;;;5009645;28;20294;-71
2021/01/24 11:27:26;;;;;;;26.00;15.97;;;3.90;99.90;;;;;;5010950;28;20741;-71
2021/01/24 11:29:53;;;;;;;26.80;16.43;;;3.90;99.90;;;;;;5008946;28;20697;-71
2021/01/24 11:32:19;;;;;;;22.67;15.77;;;3.90;99.90;;;;;;5010061;28;20272;-72
2021/01/24 11:34:46;;;;;;;25.83;17.33;;;3.90;99.90;;;;;;5009214;28;20235;-71
2021/01/24 11:37:12;;;;;;;25.97;16.10;;;3.90;99.90;;;;;;5009925;28;20662;-71
2021/01/24 11:39:39;;;;;;;27.33;17.80;;;3.90;99.90;;;;;;5010415;28;20207;-72
2021/01/24 11:42:06;;;;;;;25.67;16.13;;;4.00;99.90;;;;;;5010411;28;20298;-70
2021/01/24 11:44:34;;;;;;;24.70;15.90;;;4.00;99.90;;;;;;5010305;28;20290;-73
2021/01/24 11:47:00;;;;;;;27.67;16.63;;;4.00;99.90;;;;;;5008510;28;20303;-71
2021/01/24 11:49:27;;;;;;;27.83;16.77;;;4.00;99.90;;;;;;5010765;28;20298;-72
2021/01/24 11:51:53;;;;;;;22.57;15.50;;;4.00;99.90;;;;;;5010870;28;20310;-71
2021/01/24 11:54:19;;;;;;;23.90;15.70;;;4.00;99.90;;;;;;5007669;28;20467;-70
2021/01/24 11:56:47;;;;;;;24.07;15.63;;;3.90;99.90;;;;;;5009203;28;20238;-71
2021/01/24 11:59:15;;;;;;;25.20;15.53;;;3.90;99.90;;;;;;5010312;28;20333;-70
2021/01/24 12:01:41;;;;;;;26.03;16.13;;;3.90;99.90;;;;;;5009367;28;20211;-72
2021/01/24 12:04:07;;;;;;;23.17;15.90;;;3.90;99.90;;;;;;5010871;28;20230;-71
2021/01/24 12:06:34;;;;;;;24.97;17.47;;;3.90;99.90;;;;;;5007313;28;20215;-71
2021/01/24 12:09:00;;;;;;;27.27;16.00;;;3.90;99.90;;;;;;5009945;28;20222;-70
2021/01/24 12:11:27;;;;;;;26.33;16.93;;;3.80;99.90;;;;;;5008767;28;21071;-71
2021/01/24 12:13:53;;;;;;;24.77;16.83;;;3.90;99.90;;;;;;5009847;28;20215;-71
2021/01/24 12:16:21;;;;;;;26.83;17.37;;;3.80;99.90;;;;;;5007554;28;20234;-71
2021/01/24 12:18:48;;;;;;;24.20;16.17;;;3.80;99.90;;;;;;5010421;28;20314;-71
2021/01/24 12:21:15;;;;;;;26.00;16.70;;;3.80;99.90;;;;;;5009750;28;20739;-70
2021/01/24 12:23:41;;;;;;;26.53;17.43;;;3.80;99.90;;;;;;5008292;28;20983;-72
2021/01/24 12:26:07;;;;;;;29.53;17.20;;;3.80;99.90;;;;;;5007391;28;20594;-72
2021/01/24 12:28:34;;;;;;;25.47;16.27;;;3.90;99.90;;;;;;5010637;28;20217;-72
2021/01/24 12:31:00;;;;;;;26.30;15.97;;;3.90;99.90;;;;;;5007331;28;20301;-73
2021/01/24 12:33:28;;;;;;;26.67;16.33;;;4.00;99.90;;;;;;5011821;28;20212;-72
2021/01/24 12:35:54;;;;;;;26.20;16.70;;;4.00;99.90;;;;;;5013765;28;20290;-71
2021/01/24 12:38:20;;;;;;;26.17;17.00;;;4.00;99.90;;;;;;5011391;28;20287;-72
2021/01/24 12:40:47;;;;;;;26.67;16.40;;;4.00;99.90;;;;;;5013633;28;20242;-72
2021/01/24 12:43:13;;;;;;;25.03;15.87;;;4.00;99.90;;;;;;5011688;28;20682;-71
2021/01/24 12:45:39;;;;;;;25.80;16.80;;;4.00;99.90;;;;;;5013225;28;21076;-71
2021/01/24 12:48:06;;;;;;;26.87;16.63;;;4.00;99.90;;;;;;5012911;28;20664;-71
2021/01/24 12:50:34;;;;;;;27.57;16.93;;;4.00;99.90;;;;;;5013641;28;20213;-72